Terminal Aerodrome Forecast
Issued by NWS Birmingham, AL

Home | Current Version | Previous Version | Text Only | Print | Product List | Glossary On
Versions: 1 2 3 4 5 6 7 8 9 10 11 12 13 14 15 16 17 18 19 20 21 22 23 24 25
871
FTUS44 KBMX 022340
TAFBHM
TAF
KBHM 022340Z 0300/0324 14005KT 4SM -RA SCT050 BKN100
     FM030100 14005KT P6SM VCSH SCT025 OVC100
     FM030400 30005KT P6SM VCSH SCT007 BKN015
     FM030900 32003KT 6SM BR BKN007
     FM031500 31010KT P6SM SCT015 BKN050=

USA.gov is the U.S. government's official web portal to all federal, state and local government web resources and services.